sensor_id;sensor_type;location;lat;lon;timestamp;temperature;humidity
7934;DHT22;4012;48.896;9.192;2024-01-30T00:02:21;5.10;99.90
7934;DHT22;4012;48.896;9.192;2024-01-30T00:04:47;5.10;99.90
7934;DHT22;4012;48.896;9.192;2024-01-30T00:07:12;5.10;99.90
7934;DHT22;4012;48.896;9.192;2024-01-30T00:09:38;5.20;99.90
7934;DHT22;4012;48.896;9.192;2024-01-30T00:12:05;5.30;99.90
7934;DHT22;4012;48.896;9.192;2024-01-30T00:14:31;5.30;99.90
7934;DHT22;4012;48.896;9.192;2024-01-30T00:16:57;5.30;99.90
7934;DHT22;4012;48.896;9.192;2024-01-30T00:19:22;5.40;99.90
7934;DHT22;4012;48.896;9.192;2024-01-30T00:21:48;5.40;99.90
7934;DHT22;4012;48.896;9.192;2024-01-30T00:24:13;5.50;99.90
7934;DHT22;4012;48.896;9.192;2024-01-30T00:26:39;5.50;99.90
7934;DHT22;4012;48.896;9.192;2024-01-30T00:29:05;5.60;99.90
7934;DHT22;4012;48.896;9.192;2024-01-30T00:31:31;5.60;99.90
7934;DHT22;4012;48.896;9.192;2024-01-30T00:33:56;5.60;99.90
7934;DHT22;4012;48.896;9.192;2024-01-30T00:36:22;5.60;99.90
7934;DHT22;4012;48.896;9.192;2024-01-30T00:38:48;5.40;99.90
7934;DHT22;4012;48.896;9.192;2024-01-30T00:41:13;5.50;99.90
7934;DHT22;4012;48.896;9.192;2024-01-30T00:43:39;5.40;99.90
7934;DHT22;4012;48.896;9.192;2024-01-30T00:46:05;5.20;99.90
7934;DHT22;4012;48.896;9.192;2024-01-30T00:48:30;5.20;99.90
7934;DHT22;4012;48.896;9.192;2024-01-30T00:50:56;5.20;99.90
7934;DHT22;4012;48.896;9.192;2024-01-30T00:53:21;5.30;99.90
7934;DHT22;4012;48.896;9.192;2024-01-30T00:55:47;5.30;99.90
7934;DHT22;4012;48.896;9.192;2024-01-30T00:58:13;5.30;99.90
7934;DHT22;4012;48.896;9.192;2024-01-30T01:00:39;5.30;99.90
7934;DHT22;4012;48.896;9.192;2024-01-30T01:03:04;5.20;99.90
7934;DHT22;4012;48.896;9.192;2024-01-30T01:05:30;5.30;99.90
7934;DHT22;4012;48.896;9.192;2024-01-30T01:07:55;5.30;99.90
7934;DHT22;4012;48.896;9.192;2024-01-30T01:10:21;5.30;99.90
7934;DHT22;4012;48.896;9.192;2024-01-30T01:12:48;5.30;99.90
7934;DHT22;4012;48.896;9.192;2024-01-30T01:15:13;5.30;99.90
7934;DHT22;4012;48.896;9.192;2024-01-30T01:17:39;5.30;99.90
7934;DHT22;4012;48.896;9.192;2024-01-30T01:20:06;5.40;99.90
7934;DHT22;4012;48.896;9.192;2024-01-30T01:22:33;5.40;99.90
7934;DHT22;4012;48.896;9.192;2024-01-30T01:24:59;5.50;99.90
7934;DHT22;4012;48.896;9.192;2024-01-30T01:27:25;5.60;99.90
7934;DHT22;4012;48.896;9.192;2024-01-30T01:29:51;5.60;99.90
7934;DHT22;4012;48.896;9.192;2024-01-30T01:32:17;5.60;99.90
7934;DHT22;4012;48.896;9.192;2024-01-30T01:34:42;5.60;99.90
7934;DHT22;4012;48.896;9.192;2024-01-30T01:37:08;5.60;99.90
7934;DHT22;4012;48.896;9.192;2024-01-30T01:39:34;5.60;99.90
7934;DHT22;4012;48.896;9.192;2024-01-30T01:41:59;5.60;99.90
7934;DHT22;4012;48.896;9.192;2024-01-30T01:44:25;5.50;99.90
7934;DHT22;4012;48.896;9.192;2024-01-30T01:46:51;5.50;99.90
7934;DHT22;4012;48.896;9.192;2024-01-30T01:49:17;5.50;99.90
7934;DHT22;4012;48.896;9.192;2024-01-30T01:51:45;5.50;99.90
7934;DHT22;4012;48.896;9.192;2024-01-30T01:54:11;5.50;99.90
7934;DHT22;4012;48.896;9.192;2024-01-30T01:56:37;5.50;99.90
7934;DHT22;4012;48.896;9.192;2024-01-30T01:59:07;5.60;99.90
7934;DHT22;4012;48.896;9.192;2024-01-30T02:01:35;5.60;99.90
7934;DHT22;4012;48.896;9.192;2024-01-30T02:04:01;5.60;99.90
7934;DHT22;4012;48.896;9.192;2024-01-30T02:06:27;5.50;99.90
7934;DHT22;4012;48.896;9.192;2024-01-30T02:08:54;5.50;99.90
7934;DHT22;4012;48.896;9.192;2024-01-30T02:11:20;5.40;99.90
7934;DHT22;4012;48.896;9.192;2024-01-30T02:13:46;5.40;99.90
7934;DHT22;4012;48.896;9.192;2024-01-30T02:16:11;5.30;99.90
7934;DHT22;4012;48.896;9.192;2024-01-30T02:18:37;5.30;99.90
7934;DHT22;4012;48.896;9.192;2024-01-30T02:21:07;5.30;99.90
7934;DHT22;4012;48.896;9.192;2024-01-30T02:23:34;5.30;99.90
7934;DHT22;4012;48.896;9.192;2024-01-30T02:26:00;5.30;99.90
7934;DHT22;4012;48.896;9.192;2024-01-30T02:28:26;5.20;99.90
7934;DHT22;4012;48.896;9.192;2024-01-30T02:30:52;5.10;99.90
7934;DHT22;4012;48.896;9.192;2024-01-30T02:33:18;5.10;99.90
7934;DHT22;4012;48.896;9.192;2024-01-30T02:35:43;5.10;99.90
7934;DHT22;4012;48.896;9.192;2024-01-30T02:38:09;5.20;99.90
7934;DHT22;4012;48.896;9.192;2024-01-30T02:40:35;5.20;99.90
7934;DHT22;4012;48.896;9.192;2024-01-30T02:43:01;5.10;99.90
7934;DHT22;4012;48.896;9.192;2024-01-30T02:45:27;5.10;99.90
7934;DHT22;4012;48.896;9.192;2024-01-30T02:47:53;5.10;99.90
7934;DHT22;4012;48.896;9.192;2024-01-30T02:50:18;5.10;99.90
7934;DHT22;4012;48.896;9.192;2024-01-30T02:52:44;5.10;99.90
7934;DHT22;4012;48.896;9.192;2024-01-30T02:55:10;5.20;99.90
7934;DHT22;4012;48.896;9.192;2024-01-30T02:57:36;5.20;99.90
7934;DHT22;4012;48.896;9.192;2024-01-30T03:00:01;5.10;99.90
7934;DHT22;4012;48.896;9.192;2024-01-30T03:02:29;5.10;99.90
7934;DHT22;4012;48.896;9.192;2024-01-30T03:04:54;5.10;99.90
7934;DHT22;4012;48.896;9.192;2024-01-30T03:07:20;5.10;99.90
7934;DHT22;4012;48.896;9.192;2024-01-30T03:09:45;5.10;99.90
7934;DHT22;4012;48.896;9.192;2024-01-30T03:12:11;5.10;99.90
7934;DHT22;4012;48.896;9.192;2024-01-30T03:14:36;5.10;99.90
7934;DHT22;4012;48.896;9.192;2024-01-30T03:17:03;5.10;99.90
7934;DHT22;4012;48.896;9.192;2024-01-30T03:19:28;5.00;99.90
7934;DHT22;4012;48.896;9.192;2024-01-30T03:21:54;5.00;99.90
7934;DHT22;4012;48.896;9.192;2024-01-30T03:24:19;5.00;99.90
7934;DHT22;4012;48.896;9.192;2024-01-30T03:26:45;4.90;99.90
7934;DHT22;4012;48.896;9.192;2024-01-30T03:29:11;4.90;99.90
7934;DHT22;4012;48.896;9.192;2024-01-30T03:31:37;4.90;99.90
7934;DHT22;4012;48.896;9.192;2024-01-30T03:34:02;4.80;99.90
7934;DHT22;4012;48.896;9.192;2024-01-30T03:36:28;4.80;99.90
7934;DHT22;4012;48.896;9.192;2024-01-30T03:38:54;4.80;99.90
7934;DHT22;4012;48.896;9.192;2024-01-30T03:41:19;4.80;99.90
7934;DHT22;4012;48.896;9.192;2024-01-30T03:43:46;4.80;99.90
7934;DHT22;4012;48.896;9.192;2024-01-30T03:46:12;4.80;99.90
7934;DHT22;4012;48.896;9.192;2024-01-30T03:48:38;4.80;99.90
7934;DHT22;4012;48.896;9.192;2024-01-30T03:51:04;4.80;99.90
7934;DHT22;4012;48.896;9.192;2024-01-30T03:53:30;4.80;99.90
7934;DHT22;4012;48.896;9.192;2024-01-30T03:55:56;4.80;99.90
7934;DHT22;4012;48.896;9.192;2024-01-30T03:58:22;4.80;99.90
7934;DHT22;4012;48.896;9.192;2024-01-30T04:00:47;4.90;99.90
7934;DHT22;4012;48.896;9.192;2024-01-30T04:03:14;4.80;99.90
7934;DHT22;4012;48.896;9.192;2024-01-30T04:05:41;4.80;99.90
7934;DHT22;4012;48.896;9.192;2024-01-30T04:08:07;4.80;99.90
7934;DHT22;4012;48.896;9.192;2024-01-30T04:10:33;4.70;99.90
7934;DHT22;4012;48.896;9.192;2024-01-30T04:12:58;4.60;99.90
7934;DHT22;4012;48.896;9.192;2024-01-30T04:15:25;4.60;99.90
7934;DHT22;4012;48.896;9.192;2024-01-30T04:17:51;4.60;99.90
7934;DHT22;4012;48.896;9.192;2024-01-30T04:20:16;4.60;99.90
7934;DHT22;4012;48.896;9.192;2024-01-30T04:22:46;4.70;99.90
7934;DHT22;4012;48.896;9.192;2024-01-30T04:25:12;4.60;99.90
7934;DHT22;4012;48.896;9.192;2024-01-30T04:27:38;4.60;99.90
7934;DHT22;4012;48.896;9.192;2024-01-30T04:30:04;4.60;99.90
7934;DHT22;4012;48.896;9.192;2024-01-30T04:32:30;4.60;99.90
7934;DHT22;4012;48.896;9.192;2024-01-30T04:34:55;4.60;99.90
7934;DHT22;4012;48.896;9.192;2024-01-30T04:37:21;4.60;99.90
7934;DHT22;4012;48.896;9.192;2024-01-30T04:39:47;4.70;99.90
7934;DHT22;4012;48.896;9.192;2024-01-30T04:42:12;4.70;99.90
7934;DHT22;4012;48.896;9.192;2024-01-30T04:44:38;4.70;99.90
7934;DHT22;4012;48.896;9.192;2024-01-30T04:47:04;4.70;99.90
7934;DHT22;4012;48.896;9.192;2024-01-30T04:49:31;4.70;99.90
7934;DHT22;4012;48.896;9.192;2024-01-30T04:51:57;4.50;99.90
7934;DHT22;4012;48.896;9.192;2024-01-30T04:54:23;4.50;99.90
7934;DHT22;4012;48.896;9.192;2024-01-30T04:56:48;4.40;99.90
7934;DHT22;4012;48.896;9.192;2024-01-30T04:59:14;4.20;99.90
7934;DHT22;4012;48.896;9.192;2024-01-30T05:01:39;4.20;99.90
7934;DHT22;4012;48.896;9.192;2024-01-30T05:04:07;4.10;99.90
7934;DHT22;4012;48.896;9.192;2024-01-30T05:06:33;4.10;99.90
7934;DHT22;4012;48.896;9.192;2024-01-30T05:08:59;4.10;99.90
7934;DHT22;4012;48.896;9.192;2024-01-30T05:11:24;4.00;99.90
7934;DHT22;4012;48.896;9.192;2024-01-30T05:13:50;4.10;99.90
7934;DHT22;4012;48.896;9.192;2024-01-30T05:16:15;4.10;99.90
7934;DHT22;4012;48.896;9.192;2024-01-30T05:18:41;4.10;99.90
7934;DHT22;4012;48.896;9.192;2024-01-30T05:21:06;4.10;99.90
7934;DHT22;4012;48.896;9.192;2024-01-30T05:23:32;4.10;99.90
7934;DHT22;4012;48.896;9.192;2024-01-30T05:25:57;4.10;99.90
7934;DHT22;4012;48.896;9.192;2024-01-30T05:28:26;4.10;99.90
7934;DHT22;4012;48.896;9.192;2024-01-30T05:30:52;4.10;99.90
7934;DHT22;4012;48.896;9.192;2024-01-30T05:33:17;4.20;99.90
7934;DHT22;4012;48.896;9.192;2024-01-30T05:35:43;4.30;99.90
7934;DHT22;4012;48.896;9.192;2024-01-30T05:38:08;4.30;99.90
7934;DHT22;4012;48.896;9.192;2024-01-30T05:40:34;4.40;99.90
7934;DHT22;4012;48.896;9.192;2024-01-30T05:42:59;4.40;99.90
7934;DHT22;4012;48.896;9.192;2024-01-30T05:45:26;4.40;99.90
7934;DHT22;4012;48.896;9.192;2024-01-30T05:47:52;4.40;99.90
7934;DHT22;4012;48.896;9.192;2024-01-30T05:50:18;4.40;99.90
7934;DHT22;4012;48.896;9.192;2024-01-30T05:52:44;4.40;99.90
7934;DHT22;4012;48.896;9.192;2024-01-30T05:55:10;4.40;99.90
7934;DHT22;4012;48.896;9.192;2024-01-30T05:57:37;4.30;99.90
7934;DHT22;4012;48.896;9.192;2024-01-30T06:00:04;4.30;99.90
7934;DHT22;4012;48.896;9.192;2024-01-30T06:02:29;4.40;99.90
7934;DHT22;4012;48.896;9.192;2024-01-30T06:04:55;4.40;99.90
7934;DHT22;4012;48.896;9.192;2024-01-30T06:07:20;4.40;99.90
7934;DHT22;4012;48.896;9.192;2024-01-30T06:09:47;4.50;99.90
7934;DHT22;4012;48.896;9.192;2024-01-30T06:12:13;4.50;99.90
7934;DHT22;4012;48.896;9.192;2024-01-30T06:14:38;4.40;99.90
7934;DHT22;4012;48.896;9.192;2024-01-30T06:17:04;4.30;99.90
7934;DHT22;4012;48.896;9.192;2024-01-30T06:19:30;4.20;99.90
7934;DHT22;4012;48.896;9.192;2024-01-30T06:21:57;4.10;99.90
7934;DHT22;4012;48.896;9.192;2024-01-30T06:24:22;4.20;99.90
7934;DHT22;4012;48.896;9.192;2024-01-30T06:26:48;4.30;99.90
7934;DHT22;4012;48.896;9.192;2024-01-30T06:29:14;4.40;99.90
7934;DHT22;4012;48.896;9.192;2024-01-30T06:31:40;4.50;99.90
7934;DHT22;4012;48.896;9.192;2024-01-30T06:34:07;4.50;99.90
7934;DHT22;4012;48.896;9.192;2024-01-30T06:36:33;4.60;99.90
7934;DHT22;4012;48.896;9.192;2024-01-30T06:38:58;4.50;99.90
7934;DHT22;4012;48.896;9.192;2024-01-30T06:41:24;4.50;99.90
7934;DHT22;4012;48.896;9.192;2024-01-30T06:43:50;4.50;99.90
7934;DHT22;4012;48.896;9.192;2024-01-30T06:46:15;4.50;99.90
7934;DHT22;4012;48.896;9.192;2024-01-30T06:48:41;4.30;99.90
7934;DHT22;4012;48.896;9.192;2024-01-30T06:51:09;4.30;99.90
7934;DHT22;4012;48.896;9.192;2024-01-30T06:53:34;4.30;99.90
7934;DHT22;4012;48.896;9.192;2024-01-30T06:56:00;4.30;99.90
7934;DHT22;4012;48.896;9.192;2024-01-30T06:58:26;4.20;99.90
7934;DHT22;4012;48.896;9.192;2024-01-30T07:00:51;4.20;99.90
7934;DHT22;4012;48.896;9.192;2024-01-30T07:03:17;4.10;99.90
7934;DHT22;4012;48.896;9.192;2024-01-30T07:05:42;4.20;99.90
7934;DHT22;4012;48.896;9.192;2024-01-30T07:08:08;4.20;99.90
7934;DHT22;4012;48.896;9.192;2024-01-30T07:10:34;4.20;99.90
7934;DHT22;4012;48.896;9.192;2024-01-30T07:13:00;4.30;99.90
7934;DHT22;4012;48.896;9.192;2024-01-30T07:15:26;4.20;99.90
7934;DHT22;4012;48.896;9.192;2024-01-30T07:17:52;4.20;99.90
7934;DHT22;4012;48.896;9.192;2024-01-30T07:20:17;4.20;99.90
7934;DHT22;4012;48.896;9.192;2024-01-30T07:22:45;4.30;99.90
7934;DHT22;4012;48.896;9.192;2024-01-30T07:25:11;4.30;99.90
7934;DHT22;4012;48.896;9.192;2024-01-30T07:27:37;4.30;99.90
7934;DHT22;4012;48.896;9.192;2024-01-30T07:30:02;4.30;99.90
7934;DHT22;4012;48.896;9.192;2024-01-30T07:32:28;4.40;99.90
7934;DHT22;4012;48.896;9.192;2024-01-30T07:34:53;4.60;99.90
7934;DHT22;4012;48.896;9.192;2024-01-30T07:37:19;4.60;99.90
7934;DHT22;4012;48.896;9.192;2024-01-30T07:39:45;4.60;99.90
7934;DHT22;4012;48.896;9.192;2024-01-30T07:42:10;4.80;99.90
7934;DHT22;4012;48.896;9.192;2024-01-30T07:44:36;4.90;99.90
7934;DHT22;4012;48.896;9.192;2024-01-30T07:47:01;5.00;99.90
7934;DHT22;4012;48.896;9.192;2024-01-30T07:49:28;5.10;99.90
7934;DHT22;4012;48.896;9.192;2024-01-30T07:51:54;5.10;99.90
7934;DHT22;4012;48.896;9.192;2024-01-30T07:54:19;5.10;99.90
7934;DHT22;4012;48.896;9.192;2024-01-30T07:56:45;5.20;99.90
7934;DHT22;4012;48.896;9.192;2024-01-30T07:59:11;5.20;99.90
7934;DHT22;4012;48.896;9.192;2024-01-30T08:01:37;5.20;99.90
7934;DHT22;4012;48.896;9.192;2024-01-30T08:04:02;5.10;99.90
7934;DHT22;4012;48.896;9.192;2024-01-30T08:06:28;5.20;99.90
7934;DHT22;4012;48.896;9.192;2024-01-30T08:08:53;5.10;99.90
7934;DHT22;4012;48.896;9.192;2024-01-30T08:11:22;5.20;99.90
7934;DHT22;4012;48.896;9.192;2024-01-30T08:13:54;5.20;99.90
7934;DHT22;4012;48.896;9.192;2024-01-30T08:16:20;5.40;99.90
7934;DHT22;4012;48.896;9.192;2024-01-30T08:18:46;5.50;99.90
7934;DHT22;4012;48.896;9.192;2024-01-30T08:21:11;5.60;99.90
7934;DHT22;4012;48.896;9.192;2024-01-30T08:23:38;5.70;99.90
7934;DHT22;4012;48.896;9.192;2024-01-30T08:26:05;5.90;99.90
7934;DHT22;4012;48.896;9.192;2024-01-30T08:28:31;6.00;99.90
7934;DHT22;4012;48.896;9.192;2024-01-30T08:30:56;6.20;99.90
7934;DHT22;4012;48.896;9.192;2024-01-30T08:33:22;6.10;99.90
7934;DHT22;4012;48.896;9.192;2024-01-30T08:35:48;6.40;99.90
7934;DHT22;4012;48.896;9.192;2024-01-30T08:38:14;6.70;99.90
7934;DHT22;4012;48.896;9.192;2024-01-30T08:40:39;6.90;99.90
7934;DHT22;4012;48.896;9.192;2024-01-30T08:43:05;7.10;99.90
7934;DHT22;4012;48.896;9.192;2024-01-30T08:45:30;7.00;99.90
7934;DHT22;4012;48.896;9.192;2024-01-30T08:47:56;7.10;99.90
7934;DHT22;4012;48.896;9.192;2024-01-30T08:50:22;7.40;99.90
7934;DHT22;4012;48.896;9.192;2024-01-30T08:52:47;7.60;99.90
7934;DHT22;4012;48.896;9.192;2024-01-30T08:55:13;8.30;99.90
7934;DHT22;4012;48.896;9.192;2024-01-30T08:57:39;9.00;99.90
7934;DHT22;4012;48.896;9.192;2024-01-30T09:00:05;9.70;99.90
7934;DHT22;4012;48.896;9.192;2024-01-30T09:02:32;10.20;99.90
7934;DHT22;4012;48.896;9.192;2024-01-30T09:04:58;10.30;99.90
7934;DHT22;4012;48.896;9.192;2024-01-30T09:07:24;10.60;99.90
7934;DHT22;4012;48.896;9.192;2024-01-30T09:09:49;10.50;99.90
7934;DHT22;4012;48.896;9.192;2024-01-30T09:12:15;9.50;99.90
7934;DHT22;4012;48.896;9.192;2024-01-30T09:14:41;9.30;99.90
7934;DHT22;4012;48.896;9.192;2024-01-30T09:17:07;9.40;99.90
7934;DHT22;4012;48.896;9.192;2024-01-30T09:19:32;9.50;99.90
7934;DHT22;4012;48.896;9.192;2024-01-30T09:21:58;9.50;99.90
7934;DHT22;4012;48.896;9.192;2024-01-30T09:24:24;9.50;99.90
7934;DHT22;4012;48.896;9.192;2024-01-30T09:26:50;9.90;99.90
7934;DHT22;4012;48.896;9.192;2024-01-30T09:29:16;10.20;99.90
7934;DHT22;4012;48.896;9.192;2024-01-30T09:31:45;10.90;99.90
7934;DHT22;4012;48.896;9.192;2024-01-30T09:34:11;12.10;99.90
7934;DHT22;4012;48.896;9.192;2024-01-30T09:36:36;13.10;99.90
7934;DHT22;4012;48.896;9.192;2024-01-30T09:39:02;13.40;99.90
7934;DHT22;4012;48.896;9.192;2024-01-30T09:41:45;13.70;99.90
7934;DHT22;4012;48.896;9.192;2024-01-30T09:44:11;13.80;99.90
7934;DHT22;4012;48.896;9.192;2024-01-30T09:46:38;13.60;99.90
7934;DHT22;4012;48.896;9.192;2024-01-30T09:49:04;13.30;99.90
7934;DHT22;4012;48.896;9.192;2024-01-30T09:51:31;12.70;99.90
7934;DHT22;4012;48.896;9.192;2024-01-30T09:53:57;12.20;99.90
7934;DHT22;4012;48.896;9.192;2024-01-30T09:56:23;11.90;99.90
7934;DHT22;4012;48.896;9.192;2024-01-30T09:58:48;11.40;99.90
7934;DHT22;4012;48.896;9.192;2024-01-30T10:01:15;11.20;99.90
7934;DHT22;4012;48.896;9.192;2024-01-30T10:03:44;11.50;99.90
7934;DHT22;4012;48.896;9.192;2024-01-30T10:06:10;11.90;99.90
7934;DHT22;4012;48.896;9.192;2024-01-30T10:08:36;12.00;99.90
7934;DHT22;4012;48.896;9.192;2024-01-30T10:11:01;12.50;99.90
7934;DHT22;4012;48.896;9.192;2024-01-30T10:13:29;12.50;99.90
7934;DHT22;4012;48.896;9.192;2024-01-30T10:15:55;12.40;99.90
7934;DHT22;4012;48.896;9.192;2024-01-30T10:18:22;12.10;99.90
7934;DHT22;4012;48.896;9.192;2024-01-30T10:20:48;12.10;99.90
7934;DHT22;4012;48.896;9.192;2024-01-30T10:23:14;12.00;99.90
7934;DHT22;4012;48.896;9.192;2024-01-30T10:25:39;11.70;99.90
7934;DHT22;4012;48.896;9.192;2024-01-30T10:28:05;11.60;99.90
7934;DHT22;4012;48.896;9.192;2024-01-30T10:30:31;11.60;99.90
7934;DHT22;4012;48.896;9.192;2024-01-30T10:32:56;11.40;99.90
7934;DHT22;4012;48.896;9.192;2024-01-30T10:35:22;11.40;99.90
7934;DHT22;4012;48.896;9.192;2024-01-30T10:37:48;11.40;99.90
7934;DHT22;4012;48.896;9.192;2024-01-30T10:40:14;11.10;99.90
7934;DHT22;4012;48.896;9.192;2024-01-30T10:42:44;11.10;99.90
7934;DHT22;4012;48.896;9.192;2024-01-30T10:45:14;11.10;99.90
7934;DHT22;4012;48.896;9.192;2024-01-30T10:47:50;11.10;99.90
7934;DHT22;4012;48.896;9.192;2024-01-30T10:50:16;11.10;99.90
7934;DHT22;4012;48.896;9.192;2024-01-30T10:52:42;11.30;99.90
7934;DHT22;4012;48.896;9.192;2024-01-30T10:55:09;11.30;99.90
7934;DHT22;4012;48.896;9.192;2024-01-30T10:57:36;11.20;99.90
7934;DHT22;4012;48.896;9.192;2024-01-30T11:00:04;11.20;99.90
7934;DHT22;4012;48.896;9.192;2024-01-30T11:02:32;11.40;99.90
7934;DHT22;4012;48.896;9.192;2024-01-30T11:04:59;11.50;99.90
7934;DHT22;4012;48.896;9.192;2024-01-30T11:07:29;11.60;99.90
7934;DHT22;4012;48.896;9.192;2024-01-30T11:12:24;11.90;99.90
7934;DHT22;4012;48.896;9.192;2024-01-30T11:15:01;12.00;99.90
7934;DHT22;4012;48.896;9.192;2024-01-30T11:17:29;12.00;99.90
7934;DHT22;4012;48.896;9.192;2024-01-30T11:20:04;12.00;99.90
7934;DHT22;4012;48.896;9.192;2024-01-30T11:22:30;11.80;99.90
7934;DHT22;4012;48.896;9.192;2024-01-30T11:24:56;11.80;99.90
7934;DHT22;4012;48.896;9.192;2024-01-30T11:27:22;11.90;99.90
7934;DHT22;4012;48.896;9.192;2024-01-30T11:29:50;11.70;99.90
7934;DHT22;4012;48.896;9.192;2024-01-30T11:32:22;11.00;99.90
7934;DHT22;4012;48.896;9.192;2024-01-30T11:34:49;10.40;99.90
7934;DHT22;4012;48.896;9.192;2024-01-30T11:37:16;10.50;99.90
7934;DHT22;4012;48.896;9.192;2024-01-30T11:39:46;11.10;99.90
7934;DHT22;4012;48.896;9.192;2024-01-30T11:42:12;10.90;99.90
7934;DHT22;4012;48.896;9.192;2024-01-30T11:44:38;10.40;99.90
7934;DHT22;4012;48.896;9.192;2024-01-30T11:47:04;10.20;99.90
7934;DHT22;4012;48.896;9.192;2024-01-30T11:49:30;10.10;99.90
7934;DHT22;4012;48.896;9.192;2024-01-30T11:51:55;9.90;99.90
7934;DHT22;4012;48.896;9.192;2024-01-30T11:54:21;9.90;99.90
7934;DHT22;4012;48.896;9.192;2024-01-30T11:56:47;10.00;99.90
7934;DHT22;4012;48.896;9.192;2024-01-30T11:59:14;10.20;99.90
7934;DHT22;4012;48.896;9.192;2024-01-30T12:01:39;10.20;99.90
7934;DHT22;4012;48.896;9.192;2024-01-30T12:04:05;10.20;99.90
7934;DHT22;4012;48.896;9.192;2024-01-30T12:06:34;10.20;99.90
7934;DHT22;4012;48.896;9.192;2024-01-30T12:09:02;10.30;99.90
7934;DHT22;4012;48.896;9.192;2024-01-30T12:11:33;10.30;99.90
7934;DHT22;4012;48.896;9.192;2024-01-30T12:14:08;10.10;99.90
7934;DHT22;4012;48.896;9.192;2024-01-30T12:16:33;10.20;99.90
7934;DHT22;4012;48.896;9.192;2024-01-30T12:19:00;10.30;99.90
7934;DHT22;4012;48.896;9.192;2024-01-30T12:21:26;10.20;99.90
7934;DHT22;4012;48.896;9.192;2024-01-30T12:23:52;10.10;99.90
7934;DHT22;4012;48.896;9.192;2024-01-30T12:26:18;10.10;99.90
7934;DHT22;4012;48.896;9.192;2024-01-30T12:28:51;10.10;99.90
7934;DHT22;4012;48.896;9.192;2024-01-30T12:31:28;10.00;99.90
7934;DHT22;4012;48.896;9.192;2024-01-30T12:33:54;10.10;99.90
7934;DHT22;4012;48.896;9.192;2024-01-30T12:36:21;10.20;99.90
7934;DHT22;4012;48.896;9.192;2024-01-30T12:38:47;10.30;99.90
7934;DHT22;4012;48.896;9.192;2024-01-30T12:41:13;10.50;99.90
7934;DHT22;4012;48.896;9.192;2024-01-30T12:43:38;10.60;99.90
7934;DHT22;4012;48.896;9.192;2024-01-30T12:46:04;10.50;99.90
7934;DHT22;4012;48.896;9.192;2024-01-30T12:48:31;10.70;99.90
7934;DHT22;4012;48.896;9.192;2024-01-30T12:50:56;10.70;99.90
7934;DHT22;4012;48.896;9.192;2024-01-30T12:53:22;10.70;99.90
7934;DHT22;4012;48.896;9.192;2024-01-30T12:55:48;10.70;99.90
7934;DHT22;4012;48.896;9.192;2024-01-30T12:58:15;10.70;99.90
7934;DHT22;4012;48.896;9.192;2024-01-30T13:00:41;10.80;99.90
7934;DHT22;4012;48.896;9.192;2024-01-30T13:03:09;10.80;99.90
7934;DHT22;4012;48.896;9.192;2024-01-30T13:05:35;10.70;99.90
7934;DHT22;4012;48.896;9.192;2024-01-30T13:08:01;10.90;99.90
7934;DHT22;4012;48.896;9.192;2024-01-30T13:10:26;11.30;99.90
7934;DHT22;4012;48.896;9.192;2024-01-30T13:12:53;11.20;99.90
7934;DHT22;4012;48.896;9.192;2024-01-30T13:15:18;11.10;99.90
7934;DHT22;4012;48.896;9.192;2024-01-30T13:17:44;11.00;99.90
7934;DHT22;4012;48.896;9.192;2024-01-30T13:20:13;11.10;99.90
7934;DHT22;4012;48.896;9.192;2024-01-30T13:22:43;11.20;99.90
7934;DHT22;4012;48.896;9.192;2024-01-30T13:25:08;11.20;99.90
7934;DHT22;4012;48.896;9.192;2024-01-30T13:27:34;11.30;99.90
7934;DHT22;4012;48.896;9.192;2024-01-30T13:30:03;11.50;99.90
7934;DHT22;4012;48.896;9.192;2024-01-30T13:32:29;11.40;99.90
7934;DHT22;4012;48.896;9.192;2024-01-30T13:34:54;11.40;99.90
7934;DHT22;4012;48.896;9.192;2024-01-30T13:37:21;11.40;99.90
7934;DHT22;4012;48.896;9.192;2024-01-30T13:39:46;11.50;99.90
7934;DHT22;4012;48.896;9.192;2024-01-30T13:42:12;11.50;99.90
7934;DHT22;4012;48.896;9.192;2024-01-30T13:44:38;11.50;99.90
7934;DHT22;4012;48.896;9.192;2024-01-30T13:47:03;11.60;99.90
7934;DHT22;4012;48.896;9.192;2024-01-30T13:49:29;11.70;99.90
7934;DHT22;4012;48.896;9.192;2024-01-30T13:51:54;11.80;99.90
7934;DHT22;4012;48.896;9.192;2024-01-30T13:54:20;11.90;99.90
7934;DHT22;4012;48.896;9.192;2024-01-30T13:56:46;11.70;99.90
7934;DHT22;4012;48.896;9.192;2024-01-30T13:59:11;11.60;99.90
7934;DHT22;4012;48.896;9.192;2024-01-30T14:01:37;11.20;99.90
7934;DHT22;4012;48.896;9.192;2024-01-30T14:04:03;11.20;99.90
7934;DHT22;4012;48.896;9.192;2024-01-30T14:06:28;11.20;99.90
7934;DHT22;4012;48.896;9.192;2024-01-30T14:08:54;11.30;99.90
7934;DHT22;4012;48.896;9.192;2024-01-30T14:11:19;11.50;99.90
7934;DHT22;4012;48.896;9.192;2024-01-30T14:13:45;11.40;99.90
7934;DHT22;4012;48.896;9.192;2024-01-30T14:16:11;11.50;99.90
7934;DHT22;4012;48.896;9.192;2024-01-30T14:18:36;11.50;99.90
7934;DHT22;4012;48.896;9.192;2024-01-30T14:21:02;11.40;99.90
7934;DHT22;4012;48.896;9.192;2024-01-30T14:23:28;11.40;99.90
7934;DHT22;4012;48.896;9.192;2024-01-30T14:25:53;11.30;99.90
7934;DHT22;4012;48.896;9.192;2024-01-30T14:28:19;11.30;99.90
7934;DHT22;4012;48.896;9.192;2024-01-30T14:30:45;11.30;99.90
7934;DHT22;4012;48.896;9.192;2024-01-30T14:33:10;11.30;99.90
7934;DHT22;4012;48.896;9.192;2024-01-30T14:35:36;11.40;99.90
7934;DHT22;4012;48.896;9.192;2024-01-30T14:38:01;11.30;99.90
7934;DHT22;4012;48.896;9.192;2024-01-30T14:40:29;11.20;99.90
7934;DHT22;4012;48.896;9.192;2024-01-30T14:42:55;11.20;99.90
7934;DHT22;4012;48.896;9.192;2024-01-30T14:45:20;11.00;99.90
7934;DHT22;4012;48.896;9.192;2024-01-30T14:47:47;11.10;99.90
7934;DHT22;4012;48.896;9.192;2024-01-30T14:50:13;11.10;99.90
7934;DHT22;4012;48.896;9.192;2024-01-30T14:52:38;11.10;99.90
7934;DHT22;4012;48.896;9.192;2024-01-30T14:55:05;11.00;99.90
7934;DHT22;4012;48.896;9.192;2024-01-30T14:57:31;10.90;99.90
7934;DHT22;4012;48.896;9.192;2024-01-30T14:59:57;10.90;99.90
7934;DHT22;4012;48.896;9.192;2024-01-30T15:02:22;10.90;99.90
7934;DHT22;4012;48.896;9.192;2024-01-30T15:04:48;10.90;99.90
7934;DHT22;4012;48.896;9.192;2024-01-30T15:07:14;10.90;99.90
7934;DHT22;4012;48.896;9.192;2024-01-30T15:09:39;10.80;99.90
7934;DHT22;4012;48.896;9.192;2024-01-30T15:12:05;10.90;99.90
7934;DHT22;4012;48.896;9.192;2024-01-30T15:14:30;10.90;99.90
7934;DHT22;4012;48.896;9.192;2024-01-30T15:16:56;10.90;99.90
7934;DHT22;4012;48.896;9.192;2024-01-30T15:19:22;10.80;99.90
7934;DHT22;4012;48.896;9.192;2024-01-30T15:21:47;10.70;99.90
7934;DHT22;4012;48.896;9.192;2024-01-30T15:24:13;10.70;99.90
7934;DHT22;4012;48.896;9.192;2024-01-30T15:26:41;10.60;99.90
7934;DHT22;4012;48.896;9.192;2024-01-30T15:29:06;10.50;99.90
7934;DHT22;4012;48.896;9.192;2024-01-30T15:31:32;10.50;99.90
7934;DHT22;4012;48.896;9.192;2024-01-30T15:33:58;10.40;99.90
7934;DHT22;4012;48.896;9.192;2024-01-30T15:36:23;10.40;99.90
7934;DHT22;4012;48.896;9.192;2024-01-30T15:38:49;10.40;99.90
7934;DHT22;4012;48.896;9.192;2024-01-30T15:41:15;10.40;99.90
7934;DHT22;4012;48.896;9.192;2024-01-30T15:43:40;10.40;99.90
7934;DHT22;4012;48.896;9.192;2024-01-30T15:46:06;10.40;99.90
7934;DHT22;4012;48.896;9.192;2024-01-30T15:48:31;10.40;99.90
7934;DHT22;4012;48.896;9.192;2024-01-30T15:50:57;10.30;99.90
7934;DHT22;4012;48.896;9.192;2024-01-30T15:53:23;10.30;99.90
7934;DHT22;4012;48.896;9.192;2024-01-30T15:55:51;10.40;99.90
7934;DHT22;4012;48.896;9.192;2024-01-30T15:58:16;10.30;99.90
7934;DHT22;4012;48.896;9.192;2024-01-30T16:00:42;10.30;99.90
7934;DHT22;4012;48.896;9.192;2024-01-30T16:03:08;10.30;99.90
7934;DHT22;4012;48.896;9.192;2024-01-30T16:05:33;10.40;99.90
7934;DHT22;4012;48.896;9.192;2024-01-30T16:07:59;10.40;99.90